sensor_id;sensor_type;location;lat;lon;timestamp;P1;durP1;ratioP1;P2;durP2;ratioP2
47625;SDS011;33342;45.574;9.252;2022-10-16T00:01:29;72.25;;;51.92;;
47625;SDS011;33342;45.574;9.252;2022-10-16T00:03:58;70.95;;;52.28;;
47625;SDS011;33342;45.574;9.252;2022-10-16T00:06:27;71.00;;;49.67;;
47625;SDS011;33342;45.574;9.252;2022-10-16T00:08:54;68.53;;;51.33;;
47625;SDS011;33342;45.574;9.252;2022-10-16T00:11:23;68.05;;;50.65;;
47625;SDS011;33342;45.574;9.252;2022-10-16T00:13:54;72.07;;;52.45;;
47625;SDS011;33342;45.574;9.252;2022-10-16T00:16:24;78.68;;;53.58;;
47625;SDS011;33342;45.574;9.252;2022-10-16T00:18:52;75.95;;;52.92;;
47625;SDS011;33342;45.574;9.252;2022-10-16T00:21:21;81.18;;;57.70;;
47625;SDS011;33342;45.574;9.252;2022-10-16T00:24:09;78.93;;;53.47;;
47625;SDS011;33342;45.574;9.252;2022-10-16T00:26:37;75.43;;;51.67;;
47625;SDS011;33342;45.574;9.252;2022-10-16T00:29:06;74.47;;;52.70;;
47625;SDS011;33342;45.574;9.252;2022-10-16T00:31:33;80.03;;;53.45;;
47625;SDS011;33342;45.574;9.252;2022-10-16T00:34:01;76.15;;;54.10;;
47625;SDS011;33342;45.574;9.252;2022-10-16T00:36:28;75.85;;;53.80;;
47625;SDS011;33342;45.574;9.252;2022-10-16T00:38:56;80.10;;;55.22;;
47625;SDS011;33342;45.574;9.252;2022-10-16T00:41:31;70.85;;;53.67;;
47625;SDS011;33342;45.574;9.252;2022-10-16T00:43:59;74.25;;;55.05;;
47625;SDS011;33342;45.574;9.252;2022-10-16T00:49:09;72.38;;;52.63;;
47625;SDS011;33342;45.574;9.252;2022-10-16T00:54:31;65.35;;;49.50;;
47625;SDS011;33342;45.574;9.252;2022-10-16T00:57:00;64.05;;;47.60;;
47625;SDS011;33342;45.574;9.252;2022-10-16T00:59:31;66.15;;;51.35;;
47625;SDS011;33342;45.574;9.252;2022-10-16T01:02:04;74.75;;;49.90;;
47625;SDS011;33342;45.574;9.252;2022-10-16T01:04:43;70.78;;;51.95;;
47625;SDS011;33342;45.574;9.252;2022-10-16T01:07:23;69.03;;;49.35;;
47625;SDS011;33342;45.574;9.252;2022-10-16T01:13:07;66.05;;;49.50;;
47625;SDS011;33342;45.574;9.252;2022-10-16T01:16:05;63.13;;;49.15;;
47625;SDS011;33342;45.574;9.252;2022-10-16T01:18:44;62.40;;;48.90;;
47625;SDS011;33342;45.574;9.252;2022-10-16T01:21:28;56.67;;;45.05;;
47625;SDS011;33342;45.574;9.252;2022-10-16T01:24:06;61.92;;;46.33;;
47625;SDS011;33342;45.574;9.252;2022-10-16T01:29:59;59.85;;;47.53;;
47625;SDS011;33342;45.574;9.252;2022-10-16T01:33:26;65.20;;;48.15;;
47625;SDS011;33342;45.574;9.252;2022-10-16T01:35:37;61.70;;;48.50;;
47625;SDS011;33342;45.574;9.252;2022-10-16T01:38:10;64.72;;;48.00;;
47625;SDS011;33342;45.574;9.252;2022-10-16T01:40:44;62.13;;;46.88;;
47625;SDS011;33342;45.574;9.252;2022-10-16T01:43:17;68.80;;;50.13;;
47625;SDS011;33342;45.574;9.252;2022-10-16T01:45:49;65.72;;;47.63;;
47625;SDS011;33342;45.574;9.252;2022-10-16T01:48:17;70.20;;;50.33;;
47625;SDS011;33342;45.574;9.252;2022-10-16T01:50:50;59.90;;;47.28;;
47625;SDS011;33342;45.574;9.252;2022-10-16T01:53:23;60.17;;;45.70;;
47625;SDS011;33342;45.574;9.252;2022-10-16T01:55:52;64.93;;;46.70;;
47625;SDS011;33342;45.574;9.252;2022-10-16T01:58:22;62.85;;;48.95;;
47625;SDS011;33342;45.574;9.252;2022-10-16T02:00:51;61.60;;;47.85;;
47625;SDS011;33342;45.574;9.252;2022-10-16T02:03:22;63.13;;;46.33;;
47625;SDS011;33342;45.574;9.252;2022-10-16T02:05:53;55.53;;;45.13;;
47625;SDS011;33342;45.574;9.252;2022-10-16T02:08:23;60.00;;;46.00;;
47625;SDS011;33342;45.574;9.252;2022-10-16T02:10:52;56.30;;;44.80;;
47625;SDS011;33342;45.574;9.252;2022-10-16T02:13:23;62.50;;;46.30;;
47625;SDS011;33342;45.574;9.252;2022-10-16T02:15:56;55.67;;;42.65;;
47625;SDS011;33342;45.574;9.252;2022-10-16T02:18:23;55.30;;;44.67;;
47625;SDS011;33342;45.574;9.252;2022-10-16T02:20:57;55.17;;;43.50;;
47625;SDS011;33342;45.574;9.252;2022-10-16T02:26:12;56.92;;;43.35;;
47625;SDS011;33342;45.574;9.252;2022-10-16T02:28:42;56.17;;;41.20;;
47625;SDS011;33342;45.574;9.252;2022-10-16T02:31:15;53.85;;;42.05;;
47625;SDS011;33342;45.574;9.252;2022-10-16T02:33:45;54.85;;;42.75;;
47625;SDS011;33342;45.574;9.252;2022-10-16T02:36:12;57.28;;;44.83;;
47625;SDS011;33342;45.574;9.252;2022-10-16T02:38:40;58.30;;;43.58;;
47625;SDS011;33342;45.574;9.252;2022-10-16T02:41:07;53.70;;;41.80;;
47625;SDS011;33342;45.574;9.252;2022-10-16T02:43:35;56.45;;;41.53;;
47625;SDS011;33342;45.574;9.252;2022-10-16T02:46:02;51.05;;;42.72;;
47625;SDS011;33342;45.574;9.252;2022-10-16T02:48:29;52.80;;;42.75;;
47625;SDS011;33342;45.574;9.252;2022-10-16T02:50:56;54.50;;;43.35;;
47625;SDS011;33342;45.574;9.252;2022-10-16T02:53:23;49.10;;;39.90;;
47625;SDS011;33342;45.574;9.252;2022-10-16T02:55:50;51.63;;;40.13;;
47625;SDS011;33342;45.574;9.252;2022-10-16T02:58:17;51.17;;;41.58;;
47625;SDS011;33342;45.574;9.252;2022-10-16T03:00:44;52.72;;;40.05;;
47625;SDS011;33342;45.574;9.252;2022-10-16T03:03:12;56.97;;;40.35;;
47625;SDS011;33342;45.574;9.252;2022-10-16T03:05:39;50.08;;;39.65;;
47625;SDS011;33342;45.574;9.252;2022-10-16T03:08:06;51.88;;;39.00;;
47625;SDS011;33342;45.574;9.252;2022-10-16T03:10:33;49.55;;;37.92;;
47625;SDS011;33342;45.574;9.252;2022-10-16T03:13:00;49.92;;;40.53;;
47625;SDS011;33342;45.574;9.252;2022-10-16T03:15:27;50.08;;;37.88;;
47625;SDS011;33342;45.574;9.252;2022-10-16T03:17:57;45.42;;;37.10;;
47625;SDS011;33342;45.574;9.252;2022-10-16T03:20:24;52.72;;;39.67;;
47625;SDS011;33342;45.574;9.252;2022-10-16T03:22:54;50.72;;;37.58;;
47625;SDS011;33342;45.574;9.252;2022-10-16T03:25:21;52.72;;;40.38;;
47625;SDS011;33342;45.574;9.252;2022-10-16T03:27:48;50.05;;;39.88;;
47625;SDS011;33342;45.574;9.252;2022-10-16T03:30:15;50.03;;;39.35;;
47625;SDS011;33342;45.574;9.252;2022-10-16T03:32:43;51.53;;;38.67;;
47625;SDS011;33342;45.574;9.252;2022-10-16T03:35:11;46.65;;;38.33;;
47625;SDS011;33342;45.574;9.252;2022-10-16T03:37:38;45.63;;;38.00;;
47625;SDS011;33342;45.574;9.252;2022-10-16T03:40:05;53.47;;;39.35;;
47625;SDS011;33342;45.574;9.252;2022-10-16T03:42:32;48.40;;;38.80;;
47625;SDS011;33342;45.574;9.252;2022-10-16T03:44:59;47.92;;;39.05;;
47625;SDS011;33342;45.574;9.252;2022-10-16T03:47:26;49.28;;;39.65;;
47625;SDS011;33342;45.574;9.252;2022-10-16T03:49:54;48.03;;;37.83;;
47625;SDS011;33342;45.574;9.252;2022-10-16T03:52:21;50.97;;;40.40;;
47625;SDS011;33342;45.574;9.252;2022-10-16T03:54:48;47.70;;;39.55;;
47625;SDS011;33342;45.574;9.252;2022-10-16T03:57:15;49.03;;;39.50;;
47625;SDS011;33342;45.574;9.252;2022-10-16T03:59:42;48.55;;;38.33;;
47625;SDS011;33342;45.574;9.252;2022-10-16T04:02:09;46.00;;;36.58;;
47625;SDS011;33342;45.574;9.252;2022-10-16T04:04:36;48.42;;;37.88;;
47625;SDS011;33342;45.574;9.252;2022-10-16T04:07:03;47.53;;;37.75;;
47625;SDS011;33342;45.574;9.252;2022-10-16T04:09:32;50.67;;;39.83;;
47625;SDS011;33342;45.574;9.252;2022-10-16T04:11:59;47.05;;;37.85;;
47625;SDS011;33342;45.574;9.252;2022-10-16T04:14:26;48.08;;;37.97;;
47625;SDS011;33342;45.574;9.252;2022-10-16T04:16:53;46.72;;;36.60;;
47625;SDS011;33342;45.574;9.252;2022-10-16T04:19:20;48.97;;;37.33;;
47625;SDS011;33342;45.574;9.252;2022-10-16T04:21:47;50.80;;;37.55;;
47625;SDS011;33342;45.574;9.252;2022-10-16T04:24:14;45.47;;;36.25;;
47625;SDS011;33342;45.574;9.252;2022-10-16T04:26:43;48.58;;;36.80;;
47625;SDS011;33342;45.574;9.252;2022-10-16T04:29:10;44.85;;;36.65;;
47625;SDS011;33342;45.574;9.252;2022-10-16T04:31:37;42.25;;;34.88;;
47625;SDS011;33342;45.574;9.252;2022-10-16T04:34:05;42.58;;;34.17;;
47625;SDS011;33342;45.574;9.252;2022-10-16T04:36:32;41.42;;;35.03;;
47625;SDS011;33342;45.574;9.252;2022-10-16T04:38:58;40.83;;;33.53;;
47625;SDS011;33342;45.574;9.252;2022-10-16T04:41:28;39.53;;;32.42;;
47625;SDS011;33342;45.574;9.252;2022-10-16T04:43:55;38.70;;;32.17;;
47625;SDS011;33342;45.574;9.252;2022-10-16T04:46:22;42.00;;;34.17;;
47625;SDS011;33342;45.574;9.252;2022-10-16T04:48:49;40.80;;;32.58;;
47625;SDS011;33342;45.574;9.252;2022-10-16T04:51:16;42.38;;;33.00;;
47625;SDS011;33342;45.574;9.252;2022-10-16T04:53:43;40.63;;;32.63;;
47625;SDS011;33342;45.574;9.252;2022-10-16T04:56:10;42.25;;;33.92;;
47625;SDS011;33342;45.574;9.252;2022-10-16T04:58:37;42.90;;;33.22;;
47625;SDS011;33342;45.574;9.252;2022-10-16T05:01:04;41.22;;;32.63;;
47625;SDS011;33342;45.574;9.252;2022-10-16T05:03:31;38.80;;;31.27;;
47625;SDS011;33342;45.574;9.252;2022-10-16T05:05:58;41.15;;;32.63;;
47625;SDS011;33342;45.574;9.252;2022-10-16T05:08:25;37.38;;;31.70;;
47625;SDS011;33342;45.574;9.252;2022-10-16T05:10:52;37.95;;;31.95;;
47625;SDS011;33342;45.574;9.252;2022-10-16T05:13:19;40.90;;;33.38;;
47625;SDS011;33342;45.574;9.252;2022-10-16T05:15:47;42.10;;;33.13;;
47625;SDS011;33342;45.574;9.252;2022-10-16T05:18:15;43.53;;;34.78;;
47625;SDS011;33342;45.574;9.252;2022-10-16T05:20:42;40.92;;;33.17;;
47625;SDS011;33342;45.574;9.252;2022-10-16T05:23:09;46.05;;;33.40;;
47625;SDS011;33342;45.574;9.252;2022-10-16T05:25:39;42.72;;;32.13;;
47625;SDS011;33342;45.574;9.252;2022-10-16T05:28:06;42.28;;;31.85;;
47625;SDS011;33342;45.574;9.252;2022-10-16T05:30:33;41.40;;;32.95;;
47625;SDS011;33342;45.574;9.252;2022-10-16T05:33:00;42.92;;;34.00;;
47625;SDS011;33342;45.574;9.252;2022-10-16T05:35:28;41.28;;;33.97;;
47625;SDS011;33342;45.574;9.252;2022-10-16T05:37:54;41.70;;;33.97;;
47625;SDS011;33342;45.574;9.252;2022-10-16T05:40:22;41.63;;;35.17;;
47625;SDS011;33342;45.574;9.252;2022-10-16T05:42:49;43.30;;;33.58;;
47625;SDS011;33342;45.574;9.252;2022-10-16T05:45:16;39.95;;;33.53;;
47625;SDS011;33342;45.574;9.252;2022-10-16T05:47:43;41.13;;;33.65;;
47625;SDS011;33342;45.574;9.252;2022-10-16T05:50:10;42.30;;;32.90;;
47625;SDS011;33342;45.574;9.252;2022-10-16T05:52:37;50.67;;;38.08;;
47625;SDS011;33342;45.574;9.252;2022-10-16T05:55:04;52.30;;;38.13;;
47625;SDS011;33342;45.574;9.252;2022-10-16T05:57:31;46.63;;;36.03;;
47625;SDS011;33342;45.574;9.252;2022-10-16T05:59:58;43.03;;;35.78;;
47625;SDS011;33342;45.574;9.252;2022-10-16T06:02:26;45.05;;;37.47;;
47625;SDS011;33342;45.574;9.252;2022-10-16T06:04:53;45.80;;;36.50;;
47625;SDS011;33342;45.574;9.252;2022-10-16T06:07:21;43.80;;;35.78;;
47625;SDS011;33342;45.574;9.252;2022-10-16T06:09:50;45.53;;;36.20;;
47625;SDS011;33342;45.574;9.252;2022-10-16T06:12:17;44.05;;;35.88;;
47625;SDS011;33342;45.574;9.252;2022-10-16T06:14:45;44.13;;;34.63;;
47625;SDS011;33342;45.574;9.252;2022-10-16T06:17:15;48.45;;;35.75;;
47625;SDS011;33342;45.574;9.252;2022-10-16T06:19:42;46.97;;;37.22;;
47625;SDS011;33342;45.574;9.252;2022-10-16T06:22:09;48.03;;;37.05;;
47625;SDS011;33342;45.574;9.252;2022-10-16T06:24:36;47.67;;;37.75;;
47625;SDS011;33342;45.574;9.252;2022-10-16T06:27:03;48.80;;;38.05;;
47625;SDS011;33342;45.574;9.252;2022-10-16T06:29:31;43.45;;;35.63;;
47625;SDS011;33342;45.574;9.252;2022-10-16T06:31:58;44.53;;;35.92;;
47625;SDS011;33342;45.574;9.252;2022-10-16T06:34:25;44.25;;;34.22;;
47625;SDS011;33342;45.574;9.252;2022-10-16T06:36:52;51.15;;;35.42;;
47625;SDS011;33342;45.574;9.252;2022-10-16T06:39:22;45.97;;;35.75;;
47625;SDS011;33342;45.574;9.252;2022-10-16T06:41:49;48.45;;;35.83;;
47625;SDS011;33342;45.574;9.252;2022-10-16T06:44:16;43.97;;;34.70;;
47625;SDS011;33342;45.574;9.252;2022-10-16T06:46:43;46.35;;;36.00;;
47625;SDS011;33342;45.574;9.252;2022-10-16T06:49:10;49.03;;;35.90;;
47625;SDS011;33342;45.574;9.252;2022-10-16T06:51:37;46.78;;;36.67;;
47625;SDS011;33342;45.574;9.252;2022-10-16T06:54:09;49.30;;;37.13;;
47625;SDS011;33342;45.574;9.252;2022-10-16T06:56:36;49.95;;;38.53;;
47625;SDS011;33342;45.574;9.252;2022-10-16T06:59:06;51.55;;;37.05;;
47625;SDS011;33342;45.574;9.252;2022-10-16T07:01:33;50.85;;;38.30;;
47625;SDS011;33342;45.574;9.252;2022-10-16T07:04:00;48.50;;;37.47;;
47625;SDS011;33342;45.574;9.252;2022-10-16T07:06:30;51.60;;;38.38;;
47625;SDS011;33342;45.574;9.252;2022-10-16T07:09:00;53.03;;;39.17;;
47625;SDS011;33342;45.574;9.252;2022-10-16T07:11:29;56.10;;;39.85;;
47625;SDS011;33342;45.574;9.252;2022-10-16T07:13:56;50.40;;;39.92;;
47625;SDS011;33342;45.574;9.252;2022-10-16T07:16:25;51.38;;;40.13;;
47625;SDS011;33342;45.574;9.252;2022-10-16T07:18:54;55.42;;;42.67;;
47625;SDS011;33342;45.574;9.252;2022-10-16T07:21:30;62.75;;;48.75;;
47625;SDS011;33342;45.574;9.252;2022-10-16T07:24:02;57.78;;;43.50;;
47625;SDS011;33342;45.574;9.252;2022-10-16T07:26:34;56.67;;;42.70;;
47625;SDS011;33342;45.574;9.252;2022-10-16T07:29:02;59.65;;;41.25;;
47625;SDS011;33342;45.574;9.252;2022-10-16T07:31:30;61.45;;;45.30;;
47625;SDS011;33342;45.574;9.252;2022-10-16T07:33:58;56.25;;;42.85;;
47625;SDS011;33342;45.574;9.252;2022-10-16T07:36:25;61.38;;;43.75;;
47625;SDS011;33342;45.574;9.252;2022-10-16T07:38:53;60.97;;;45.20;;
47625;SDS011;33342;45.574;9.252;2022-10-16T07:41:25;57.05;;;44.70;;
47625;SDS011;33342;45.574;9.252;2022-10-16T07:43:53;58.03;;;44.70;;
47625;SDS011;33342;45.574;9.252;2022-10-16T07:46:21;61.05;;;46.03;;
47625;SDS011;33342;45.574;9.252;2022-10-16T07:48:49;57.45;;;44.40;;
47625;SDS011;33342;45.574;9.252;2022-10-16T07:51:20;61.45;;;44.60;;
47625;SDS011;33342;45.574;9.252;2022-10-16T07:53:49;59.60;;;45.40;;
47625;SDS011;33342;45.574;9.252;2022-10-16T07:56:17;57.58;;;43.88;;
47625;SDS011;33342;45.574;9.252;2022-10-16T07:58:45;60.50;;;45.30;;
47625;SDS011;33342;45.574;9.252;2022-10-16T08:01:13;56.42;;;44.05;;
47625;SDS011;33342;45.574;9.252;2022-10-16T08:03:46;61.63;;;44.15;;
47625;SDS011;33342;45.574;9.252;2022-10-16T08:06:17;56.92;;;43.50;;
47625;SDS011;33342;45.574;9.252;2022-10-16T08:08:50;59.80;;;44.38;;
47625;SDS011;33342;45.574;9.252;2022-10-16T08:11:17;59.42;;;44.70;;
47625;SDS011;33342;45.574;9.252;2022-10-16T08:13:45;58.08;;;43.20;;
47625;SDS011;33342;45.574;9.252;2022-10-16T08:16:12;55.47;;;44.47;;
47625;SDS011;33342;45.574;9.252;2022-10-16T08:18:40;56.70;;;42.85;;
47625;SDS011;33342;45.574;9.252;2022-10-16T08:21:08;58.88;;;42.80;;
47625;SDS011;33342;45.574;9.252;2022-10-16T08:23:47;58.28;;;43.53;;
47625;SDS011;33342;45.574;9.252;2022-10-16T08:26:23;53.10;;;40.97;;
47625;SDS011;33342;45.574;9.252;2022-10-16T08:28:51;52.97;;;40.30;;
47625;SDS011;33342;45.574;9.252;2022-10-16T08:31:18;53.13;;;39.70;;
47625;SDS011;33342;45.574;9.252;2022-10-16T08:33:45;46.85;;;34.97;;
47625;SDS011;33342;45.574;9.252;2022-10-16T08:36:14;50.05;;;35.55;;
47625;SDS011;33342;45.574;9.252;2022-10-16T08:38:42;46.28;;;35.38;;
47625;SDS011;33342;45.574;9.252;2022-10-16T08:43:55;41.67;;;32.67;;
47625;SDS011;33342;45.574;9.252;2022-10-16T08:46:50;41.05;;;31.60;;
47625;SDS011;33342;45.574;9.252;2022-10-16T08:49:29;42.20;;;32.80;;
47625;SDS011;33342;45.574;9.252;2022-10-16T08:51:57;43.42;;;32.30;;
47625;SDS011;33342;45.574;9.252;2022-10-16T08:54:28;44.55;;;34.30;;
47625;SDS011;33342;45.574;9.252;2022-10-16T08:57:07;45.10;;;32.92;;
47625;SDS011;33342;45.574;9.252;2022-10-16T08:59:49;45.83;;;35.22;;
47625;SDS011;33342;45.574;9.252;2022-10-16T09:02:24;48.90;;;32.50;;
47625;SDS011;33342;45.574;9.252;2022-10-16T09:07:39;45.40;;;35.08;;
47625;SDS011;33342;45.574;9.252;2022-10-16T09:12:41;53.08;;;38.03;;
47625;SDS011;33342;45.574;9.252;2022-10-16T09:15:17;46.13;;;34.92;;
47625;SDS011;33342;45.574;9.252;2022-10-16T09:18:09;46.78;;;35.13;;
47625;SDS011;33342;45.574;9.252;2022-10-16T09:23:28;51.10;;;38.33;;
47625;SDS011;33342;45.574;9.252;2022-10-16T09:25:57;50.10;;;38.13;;
47625;SDS011;33342;45.574;9.252;2022-10-16T09:28:25;48.58;;;36.55;;
47625;SDS011;33342;45.574;9.252;2022-10-16T09:30:52;54.80;;;39.03;;
47625;SDS011;33342;45.574;9.252;2022-10-16T09:33:28;56.33;;;40.35;;
47625;SDS011;33342;45.574;9.252;2022-10-16T09:36:06;47.13;;;38.72;;
47625;SDS011;33342;45.574;9.252;2022-10-16T09:38:35;54.70;;;39.58;;
47625;SDS011;33342;45.574;9.252;2022-10-16T09:41:03;51.80;;;38.30;;
47625;SDS011;33342;45.574;9.252;2022-10-16T09:43:55;54.67;;;39.53;;
47625;SDS011;33342;45.574;9.252;2022-10-16T09:46:26;60.60;;;41.17;;
47625;SDS011;33342;45.574;9.252;2022-10-16T09:48:57;54.47;;;40.88;;
47625;SDS011;33342;45.574;9.252;2022-10-16T09:51:27;55.63;;;40.63;;
47625;SDS011;33342;45.574;9.252;2022-10-16T09:54:17;55.97;;;41.25;;
47625;SDS011;33342;45.574;9.252;2022-10-16T09:56:44;62.40;;;44.25;;
47625;SDS011;33342;45.574;9.252;2022-10-16T09:59:16;64.55;;;44.22;;
47625;SDS011;33342;45.574;9.252;2022-10-16T10:01:51;57.47;;;42.85;;
47625;SDS011;33342;45.574;9.252;2022-10-16T10:04:20;65.13;;;45.92;;
47625;SDS011;33342;45.574;9.252;2022-10-16T10:06:54;71.97;;;48.70;;
47625;SDS011;33342;45.574;9.252;2022-10-16T10:09:26;72.45;;;50.20;;
47625;SDS011;33342;45.574;9.252;2022-10-16T10:11:59;75.28;;;50.38;;
47625;SDS011;33342;45.574;9.252;2022-10-16T10:14:34;72.50;;;48.95;;
47625;SDS011;33342;45.574;9.252;2022-10-16T10:19:55;72.10;;;50.53;;
47625;SDS011;33342;45.574;9.252;2022-10-16T10:22:28;76.75;;;49.22;;
47625;SDS011;33342;45.574;9.252;2022-10-16T10:25:12;82.30;;;51.85;;
47625;SDS011;33342;45.574;9.252;2022-10-16T10:36:37;79.40;;;56.88;;
47625;SDS011;33342;45.574;9.252;2022-10-16T10:39:16;84.13;;;54.50;;
47625;SDS011;33342;45.574;9.252;2022-10-16T10:50:41;81.97;;;55.28;;
47625;SDS011;33342;45.574;9.252;2022-10-16T11:01:56;88.45;;;58.13;;
47625;SDS011;33342;45.574;9.252;2022-10-16T11:07:21;81.80;;;55.58;;
47625;SDS011;33342;45.574;9.252;2022-10-16T11:09:53;81.97;;;55.28;;
47625;SDS011;33342;45.574;9.252;2022-10-16T11:12:27;79.15;;;53.30;;
47625;SDS011;33342;45.574;9.252;2022-10-16T11:15:12;85.65;;;56.67;;
47625;SDS011;33342;45.574;9.252;2022-10-16T11:17:48;75.20;;;55.20;;
47625;SDS011;33342;45.574;9.252;2022-10-16T11:20:24;77.47;;;54.72;;
47625;SDS011;33342;45.574;9.252;2022-10-16T11:22:57;80.68;;;55.00;;
47625;SDS011;33342;45.574;9.252;2022-10-16T11:25:32;75.10;;;54.55;;
47625;SDS011;33342;45.574;9.252;2022-10-16T11:28:09;79.18;;;53.95;;
47625;SDS011;33342;45.574;9.252;2022-10-16T11:30:44;80.30;;;54.55;;
47625;SDS011;33342;45.574;9.252;2022-10-16T11:34:04;77.07;;;55.53;;
47625;SDS011;33342;45.574;9.252;2022-10-16T11:36:14;85.15;;;53.38;;
47625;SDS011;33342;45.574;9.252;2022-10-16T11:52:52;80.18;;;56.08;;
47625;SDS011;33342;45.574;9.252;2022-10-16T11:55:24;85.43;;;55.65;;
47625;SDS011;33342;45.574;9.252;2022-10-16T11:57:59;83.20;;;56.15;;
47625;SDS011;33342;45.574;9.252;2022-10-16T12:09:29;77.05;;;54.33;;
47625;SDS011;33342;45.574;9.252;2022-10-16T12:11:58;77.07;;;53.40;;
47625;SDS011;33342;45.574;9.252;2022-10-16T12:14:34;75.20;;;53.05;;
47625;SDS011;33342;45.574;9.252;2022-10-16T12:17:24;76.72;;;53.22;;
47625;SDS011;33342;45.574;9.252;2022-10-16T12:19:57;76.68;;;52.53;;
47625;SDS011;33342;45.574;9.252;2022-10-16T12:22:53;76.72;;;51.55;;
47625;SDS011;33342;45.574;9.252;2022-10-16T12:25:25;73.15;;;50.47;;
47625;SDS011;33342;45.574;9.252;2022-10-16T12:30:56;67.57;;;50.13;;
47625;SDS011;33342;45.574;9.252;2022-10-16T12:33:35;72.18;;;50.95;;
47625;SDS011;33342;45.574;9.252;2022-10-16T12:36:16;70.43;;;49.33;;
47625;SDS011;33342;45.574;9.252;2022-10-16T12:38:54;69.78;;;46.90;;
47625;SDS011;33342;45.574;9.252;2022-10-16T12:43:51;74.38;;;50.72;;
47625;SDS011;33342;45.574;9.252;2022-10-16T12:49:14;66.57;;;47.95;;
47625;SDS011;33342;45.574;9.252;2022-10-16T12:51:51;67.75;;;45.60;;
47625;SDS011;33342;45.574;9.252;2022-10-16T12:54:40;72.65;;;48.63;;
47625;SDS011;33342;45.574;9.252;2022-10-16T13:05:26;67.43;;;48.75;;
47625;SDS011;33342;45.574;9.252;2022-10-16T13:08:27;69.65;;;50.25;;
47625;SDS011;33342;45.574;9.252;2022-10-16T13:30:10;63.15;;;45.17;;
47625;SDS011;33342;45.574;9.252;2022-10-16T13:32:50;71.50;;;51.35;;
47625;SDS011;33342;45.574;9.252;2022-10-16T13:35:51;70.97;;;50.07;;
47625;SDS011;33342;45.574;9.252;2022-10-16T13:38:23;64.93;;;46.85;;
47625;SDS011;33342;45.574;9.252;2022-10-16T13:40:57;59.38;;;42.08;;
47625;SDS011;33342;45.574;9.252;2022-10-16T13:43:33;61.17;;;43.53;;
47625;SDS011;33342;45.574;9.252;2022-10-16T13:46:12;64.35;;;45.78;;
47625;SDS011;33342;45.574;9.252;2022-10-16T13:48:41;61.60;;;42.72;;
47625;SDS011;33342;45.574;9.252;2022-10-16T13:51:15;58.85;;;45.17;;
47625;SDS011;33342;45.574;9.252;2022-10-16T13:53:44;62.38;;;44.85;;
47625;SDS011;33342;45.574;9.252;2022-10-16T13:56:13;56.72;;;43.42;;
47625;SDS011;33342;45.574;9.252;2022-10-16T13:58:43;56.50;;;40.22;;
47625;SDS011;33342;45.574;9.252;2022-10-16T14:01:22;55.20;;;40.55;;
47625;SDS011;33342;45.574;9.252;2022-10-16T14:04:00;54.20;;;40.67;;
47625;SDS011;33342;45.574;9.252;2022-10-16T14:06:30;58.38;;;42.10;;
47625;SDS011;33342;45.574;9.252;2022-10-16T14:11:48;60.15;;;43.60;;
47625;SDS011;33342;45.574;9.252;2022-10-16T14:14:20;56.95;;;41.05;;
47625;SDS011;33342;45.574;9.252;2022-10-16T14:16:48;57.50;;;40.58;;
47625;SDS011;33342;45.574;9.252;2022-10-16T14:21:51;55.80;;;41.17;;
47625;SDS011;33342;45.574;9.252;2022-10-16T14:24:25;59.58;;;43.10;;
47625;SDS011;33342;45.574;9.252;2022-10-16T14:26:57;58.67;;;41.42;;
47625;SDS011;33342;45.574;9.252;2022-10-16T14:29:26;55.95;;;42.28;;
47625;SDS011;33342;45.574;9.252;2022-10-16T14:31:58;62.20;;;39.60;;
47625;SDS011;33342;45.574;9.252;2022-10-16T14:34:33;58.28;;;40.55;;
47625;SDS011;33342;45.574;9.252;2022-10-16T14:37:13;62.50;;;43.83;;
47625;SDS011;33342;45.574;9.252;2022-10-16T14:39:53;59.42;;;42.05;;
47625;SDS011;33342;45.574;9.252;2022-10-16T14:42:22;63.42;;;44.88;;
47625;SDS011;33342;45.574;9.252;2022-10-16T14:44:53;55.35;;;43.28;;
47625;SDS011;33342;45.574;9.252;2022-10-16T14:47:22;81.10;;;41.65;;
47625;SDS011;33342;45.574;9.252;2022-10-16T14:49:53;64.22;;;44.95;;
47625;SDS011;33342;45.574;9.252;2022-10-16T14:52:22;246.63;;;53.40;;
47625;SDS011;33342;45.574;9.252;2022-10-16T14:54:49;54.92;;;40.63;;
47625;SDS011;33342;45.574;9.252;2022-10-16T14:57:22;57.20;;;40.38;;
47625;SDS011;33342;45.574;9.252;2022-10-16T14:59:53;55.75;;;41.97;;
47625;SDS011;33342;45.574;9.252;2022-10-16T15:04:59;53.55;;;40.20;;
47625;SDS011;33342;45.574;9.252;2022-10-16T15:07:53;50.38;;;38.40;;
47625;SDS011;33342;45.574;9.252;2022-10-16T15:10:22;49.58;;;37.20;;
47625;SDS011;33342;45.574;9.252;2022-10-16T15:12:50;49.67;;;37.78;;
47625;SDS011;33342;45.574;9.252;2022-10-16T15:17:54;55.13;;;40.72;;
47625;SDS011;33342;45.574;9.252;2022-10-16T15:20:23;54.83;;;41.35;;
47625;SDS011;33342;45.574;9.252;2022-10-16T15:22:51;55.55;;;40.28;;
47625;SDS011;33342;45.574;9.252;2022-10-16T15:25:29;54.25;;;39.50;;
47625;SDS011;33342;45.574;9.252;2022-10-16T15:28:08;55.28;;;42.10;;
47625;SDS011;33342;45.574;9.252;2022-10-16T15:30:37;52.97;;;40.72;;
47625;SDS011;33342;45.574;9.252;2022-10-16T15:33:05;58.75;;;40.00;;
47625;SDS011;33342;45.574;9.252;2022-10-16T15:35:37;55.60;;;41.85;;
47625;SDS011;33342;45.574;9.252;2022-10-16T15:38:04;52.95;;;40.33;;
47625;SDS011;33342;45.574;9.252;2022-10-16T15:40:32;54.13;;;40.47;;
47625;SDS011;33342;45.574;9.252;2022-10-16T15:42:59;52.40;;;39.58;;
47625;SDS011;33342;45.574;9.252;2022-10-16T15:45:27;56.30;;;40.13;;
47625;SDS011;33342;45.574;9.252;2022-10-16T15:47:54;52.35;;;39.08;;
47625;SDS011;33342;45.574;9.252;2022-10-16T15:50:21;54.53;;;39.47;;
47625;SDS011;33342;45.574;9.252;2022-10-16T15:52:49;63.85;;;45.08;;
47625;SDS011;33342;45.574;9.252;2022-10-16T15:55:17;61.33;;;44.72;;
47625;SDS011;33342;45.574;9.252;2022-10-16T15:57:45;62.05;;;45.88;;
47625;SDS011;33342;45.574;9.252;2022-10-16T16:00:13;62.15;;;47.70;;
47625;SDS011;33342;45.574;9.252;2022-10-16T16:02:43;67.97;;;46.28;;
47625;SDS011;33342;45.574;9.252;2022-10-16T16:05:15;66.45;;;44.78;;
47625;SDS011;33342;45.574;9.252;2022-10-16T16:07:43;58.17;;;43.30;;
47625;SDS011;33342;45.574;9.252;2022-10-16T16:10:10;57.83;;;41.80;;
47625;SDS011;33342;45.574;9.252;2022-10-16T16:12:38;60.20;;;45.28;;
47625;SDS011;33342;45.574;9.252;2022-10-16T16:15:08;54.95;;;42.70;;
47625;SDS011;33342;45.574;9.252;2022-10-16T16:17:36;56.03;;;40.95;;
47625;SDS011;33342;45.574;9.252;2022-10-16T16:20:04;52.92;;;41.75;;
47625;SDS011;33342;45.574;9.252;2022-10-16T16:22:31;58.50;;;42.92;;
47625;SDS011;33342;45.574;9.252;2022-10-16T16:25:01;54.65;;;41.47;;
47625;SDS011;33342;45.574;9.252;2022-10-16T16:27:28;55.80;;;41.65;;
47625;SDS011;33342;45.574;9.252;2022-10-16T16:30:00;58.15;;;40.60;;
47625;SDS011;33342;45.574;9.252;2022-10-16T16:32:29;53.05;;;41.88;;
47625;SDS011;33342;45.574;9.252;2022-10-16T16:34:57;57.28;;;41.85;;
47625;SDS011;33342;45.574;9.252;2022-10-16T16:37:24;59.63;;;43.22;;
47625;SDS011;33342;45.574;9.252;2022-10-16T16:39:51;59.72;;;43.70;;
47625;SDS011;33342;45.574;9.252;2022-10-16T16:42:20;62.88;;;44.05;;
47625;SDS011;33342;45.574;9.252;2022-10-16T16:44:47;58.00;;;42.53;;
47625;SDS011;33342;45.574;9.252;2022-10-16T16:47:15;61.17;;;45.72;;
47625;SDS011;33342;45.574;9.252;2022-10-16T16:49:42;57.47;;;44.05;;